sensor_id;sensor_type;location;lat;lon;timestamp;P1;durP1;ratioP1;P2;durP2;ratioP2
9342;SDS011;4710;51.382;7.244;2022-07-15T00:01:57;2.58;;;2.10;;
9342;SDS011;4710;51.382;7.244;2022-07-15T00:04:34;2.20;;;1.92;;
9342;SDS011;4710;51.382;7.244;2022-07-15T00:07:15;3.75;;;2.40;;
9342;SDS011;4710;51.382;7.244;2022-07-15T00:09:52;2.72;;;2.20;;
9342;SDS011;4710;51.382;7.244;2022-07-15T00:12:42;3.40;;;2.33;;
9342;SDS011;4710;51.382;7.244;2022-07-15T00:15:22;5.55;;;2.22;;
9342;SDS011;4710;51.382;7.244;2022-07-15T00:18:05;3.03;;;2.40;;
9342;SDS011;4710;51.382;7.244;2022-07-15T00:20:45;3.20;;;2.30;;
9342;SDS011;4710;51.382;7.244;2022-07-15T00:23:23;2.80;;;2.25;;
9342;SDS011;4710;51.382;7.244;2022-07-15T00:26:04;4.15;;;2.28;;
9342;SDS011;4710;51.382;7.244;2022-07-15T00:28:41;5.60;;;2.53;;
9342;SDS011;4710;51.382;7.244;2022-07-15T00:31:25;3.53;;;2.22;;
9342;SDS011;4710;51.382;7.244;2022-07-15T00:34:03;4.12;;;2.45;;
9342;SDS011;4710;51.382;7.244;2022-07-15T00:36:44;3.15;;;2.47;;
9342;SDS011;4710;51.382;7.244;2022-07-15T00:39:24;4.95;;;2.40;;
9342;SDS011;4710;51.382;7.244;2022-07-15T00:42:04;3.85;;;2.25;;
9342;SDS011;4710;51.382;7.244;2022-07-15T00:44:41;3.78;;;2.40;;
9342;SDS011;4710;51.382;7.244;2022-07-15T00:47:18;3.90;;;2.30;;
9342;SDS011;4710;51.382;7.244;2022-07-15T00:49:56;3.58;;;2.33;;
9342;SDS011;4710;51.382;7.244;2022-07-15T00:52:38;3.90;;;2.28;;
9342;SDS011;4710;51.382;7.244;2022-07-15T00:55:18;3.90;;;2.35;;
9342;SDS011;4710;51.382;7.244;2022-07-15T00:58:00;2.65;;;2.15;;
9342;SDS011;4710;51.382;7.244;2022-07-15T01:00:42;3.87;;;2.20;;
9342;SDS011;4710;51.382;7.244;2022-07-15T01:03:20;3.80;;;2.33;;
9342;SDS011;4710;51.382;7.244;2022-07-15T01:05:57;4.57;;;2.50;;
9342;SDS011;4710;51.382;7.244;2022-07-15T01:08:41;3.33;;;2.28;;
9342;SDS011;4710;51.382;7.244;2022-07-15T01:11:18;6.15;;;2.50;;
9342;SDS011;4710;51.382;7.244;2022-07-15T01:13:56;2.75;;;2.20;;
9342;SDS011;4710;51.382;7.244;2022-07-15T01:16:37;4.03;;;2.33;;
9342;SDS011;4710;51.382;7.244;2022-07-15T01:19:19;4.85;;;2.50;;
9342;SDS011;4710;51.382;7.244;2022-07-15T01:21:56;5.35;;;2.33;;
9342;SDS011;4710;51.382;7.244;2022-07-15T01:24:38;4.50;;;2.17;;
9342;SDS011;4710;51.382;7.244;2022-07-15T01:27:16;5.78;;;2.30;;
9342;SDS011;4710;51.382;7.244;2022-07-15T01:29:53;5.37;;;2.35;;
9342;SDS011;4710;51.382;7.244;2022-07-15T01:32:37;4.68;;;2.40;;
9342;SDS011;4710;51.382;7.244;2022-07-15T01:35:15;4.35;;;2.45;;
9342;SDS011;4710;51.382;7.244;2022-07-15T01:37:52;3.75;;;2.30;;
9342;SDS011;4710;51.382;7.244;2022-07-15T01:40:30;4.80;;;2.10;;
9342;SDS011;4710;51.382;7.244;2022-07-15T01:43:15;5.65;;;2.20;;
9342;SDS011;4710;51.382;7.244;2022-07-15T01:45:53;4.35;;;2.00;;
9342;SDS011;4710;51.382;7.244;2022-07-15T01:48:30;4.60;;;2.20;;
9342;SDS011;4710;51.382;7.244;2022-07-15T01:51:16;3.55;;;2.05;;
9342;SDS011;4710;51.382;7.244;2022-07-15T01:53:54;4.25;;;2.45;;
9342;SDS011;4710;51.382;7.244;2022-07-15T01:56:31;4.90;;;2.35;;
9342;SDS011;4710;51.382;7.244;2022-07-15T01:59:09;4.10;;;2.20;;
9342;SDS011;4710;51.382;7.244;2022-07-15T02:01:46;7.72;;;2.45;;
9342;SDS011;4710;51.382;7.244;2022-07-15T02:04:23;4.03;;;2.50;;
9342;SDS011;4710;51.382;7.244;2022-07-15T02:07:00;5.53;;;2.40;;
9342;SDS011;4710;51.382;7.244;2022-07-15T02:09:38;8.68;;;2.33;;
9342;SDS011;4710;51.382;7.244;2022-07-15T02:12:15;4.85;;;2.20;;
9342;SDS011;4710;51.382;7.244;2022-07-15T02:14:58;4.53;;;2.47;;
9342;SDS011;4710;51.382;7.244;2022-07-15T02:17:35;4.57;;;2.28;;
9342;SDS011;4710;51.382;7.244;2022-07-15T02:20:15;6.32;;;2.65;;
9342;SDS011;4710;51.382;7.244;2022-07-15T02:22:55;4.60;;;2.70;;
9342;SDS011;4710;51.382;7.244;2022-07-15T02:25:34;6.47;;;2.45;;
9342;SDS011;4710;51.382;7.244;2022-07-15T02:28:11;5.03;;;2.40;;
9342;SDS011;4710;51.382;7.244;2022-07-15T02:30:56;4.80;;;2.50;;
9342;SDS011;4710;51.382;7.244;2022-07-15T02:33:34;3.25;;;2.20;;
9342;SDS011;4710;51.382;7.244;2022-07-15T02:36:11;4.85;;;2.40;;
9342;SDS011;4710;51.382;7.244;2022-07-15T02:38:51;4.30;;;2.42;;
9342;SDS011;4710;51.382;7.244;2022-07-15T02:41:29;4.25;;;2.10;;
9342;SDS011;4710;51.382;7.244;2022-07-15T02:44:09;4.90;;;2.60;;
9342;SDS011;4710;51.382;7.244;2022-07-15T02:46:47;5.43;;;2.50;;
9342;SDS011;4710;51.382;7.244;2022-07-15T02:49:28;3.72;;;2.15;;
9342;SDS011;4710;51.382;7.244;2022-07-15T02:52:05;6.35;;;2.50;;
9342;SDS011;4710;51.382;7.244;2022-07-15T02:54:46;3.78;;;2.30;;
9342;SDS011;4710;51.382;7.244;2022-07-15T02:57:26;4.50;;;2.60;;
9342;SDS011;4710;51.382;7.244;2022-07-15T03:00:09;5.45;;;2.72;;
9342;SDS011;4710;51.382;7.244;2022-07-15T03:02:49;4.32;;;2.47;;
9342;SDS011;4710;51.382;7.244;2022-07-15T03:05:26;4.93;;;2.50;;
9342;SDS011;4710;51.382;7.244;2022-07-15T03:08:07;5.22;;;2.80;;
9342;SDS011;4710;51.382;7.244;2022-07-15T03:10:44;5.37;;;2.40;;
9342;SDS011;4710;51.382;7.244;2022-07-15T03:13:22;5.00;;;2.47;;
9342;SDS011;4710;51.382;7.244;2022-07-15T03:16:03;5.45;;;2.70;;
9342;SDS011;4710;51.382;7.244;2022-07-15T03:18:40;5.68;;;2.70;;
9342;SDS011;4710;51.382;7.244;2022-07-15T03:21:18;3.50;;;2.37;;
9342;SDS011;4710;51.382;7.244;2022-07-15T03:23:55;6.35;;;2.60;;
9342;SDS011;4710;51.382;7.244;2022-07-15T03:26:32;6.00;;;2.78;;
9342;SDS011;4710;51.382;7.244;2022-07-15T03:29:12;5.07;;;2.65;;
9342;SDS011;4710;51.382;7.244;2022-07-15T03:31:53;4.95;;;2.50;;
9342;SDS011;4710;51.382;7.244;2022-07-15T03:35:17;3.37;;;2.20;;
9342;SDS011;4710;51.382;7.244;2022-07-15T03:37:54;4.47;;;2.40;;
9342;SDS011;4710;51.382;7.244;2022-07-15T03:40:32;4.90;;;2.40;;
9342;SDS011;4710;51.382;7.244;2022-07-15T03:43:09;5.62;;;2.70;;
9342;SDS011;4710;51.382;7.244;2022-07-15T03:45:53;5.60;;;2.92;;
9342;SDS011;4710;51.382;7.244;2022-07-15T03:48:31;4.85;;;2.60;;
9342;SDS011;4710;51.382;7.244;2022-07-15T03:51:08;4.90;;;2.75;;
9342;SDS011;4710;51.382;7.244;2022-07-15T03:53:46;7.68;;;2.87;;
9342;SDS011;4710;51.382;7.244;2022-07-15T03:56:23;4.40;;;2.62;;
9342;SDS011;4710;51.382;7.244;2022-07-15T03:59:00;7.07;;;2.60;;
9342;SDS011;4710;51.382;7.244;2022-07-15T04:01:38;4.85;;;2.60;;
9342;SDS011;4710;51.382;7.244;2022-07-15T04:04:15;7.05;;;2.83;;
9342;SDS011;4710;51.382;7.244;2022-07-15T04:08:02;2.77;;;2.10;;
9342;SDS011;4710;51.382;7.244;2022-07-15T04:10:40;6.50;;;2.80;;
9342;SDS011;4710;51.382;7.244;2022-07-15T04:13:20;5.25;;;2.65;;
9342;SDS011;4710;51.382;7.244;2022-07-15T04:16:01;7.20;;;2.85;;
9342;SDS011;4710;51.382;7.244;2022-07-15T04:18:39;5.25;;;2.50;;
9342;SDS011;4710;51.382;7.244;2022-07-15T04:21:20;3.53;;;2.67;;
9342;SDS011;4710;51.382;7.244;2022-07-15T04:23:57;6.82;;;2.62;;
9342;SDS011;4710;51.382;7.244;2022-07-15T04:26:34;5.97;;;2.72;;
9342;SDS011;4710;51.382;7.244;2022-07-15T04:29:12;4.57;;;2.53;;
9342;SDS011;4710;51.382;7.244;2022-07-15T04:31:53;4.07;;;2.80;;
9342;SDS011;4710;51.382;7.244;2022-07-15T04:34:31;6.25;;;2.95;;
9342;SDS011;4710;51.382;7.244;2022-07-15T04:37:10;5.97;;;3.17;;
9342;SDS011;4710;51.382;7.244;2022-07-15T04:39:48;7.43;;;2.97;;
9342;SDS011;4710;51.382;7.244;2022-07-15T04:42:27;6.37;;;3.00;;
9342;SDS011;4710;51.382;7.244;2022-07-15T04:45:05;7.75;;;2.90;;
9342;SDS011;4710;51.382;7.244;2022-07-15T04:47:45;4.95;;;3.12;;
9342;SDS011;4710;51.382;7.244;2022-07-15T04:50:30;4.30;;;2.62;;
9342;SDS011;4710;51.382;7.244;2022-07-15T04:53:13;6.62;;;2.95;;
9342;SDS011;4710;51.382;7.244;2022-07-15T04:55:50;7.40;;;3.17;;
9342;SDS011;4710;51.382;7.244;2022-07-15T04:58:27;5.50;;;2.87;;
9342;SDS011;4710;51.382;7.244;2022-07-15T05:01:08;7.95;;;3.10;;
9342;SDS011;4710;51.382;7.244;2022-07-15T05:03:45;5.55;;;2.95;;
9342;SDS011;4710;51.382;7.244;2022-07-15T05:06:22;5.30;;;2.97;;
9342;SDS011;4710;51.382;7.244;2022-07-15T05:09:03;7.32;;;2.90;;
9342;SDS011;4710;51.382;7.244;2022-07-15T05:11:40;9.95;;;3.10;;
9342;SDS011;4710;51.382;7.244;2022-07-15T05:14:18;3.97;;;2.60;;
9342;SDS011;4710;51.382;7.244;2022-07-15T05:16:58;4.45;;;2.70;;
9342;SDS011;4710;51.382;7.244;2022-07-15T05:19:40;5.18;;;2.60;;
9342;SDS011;4710;51.382;7.244;2022-07-15T05:22:20;5.12;;;2.40;;
9342;SDS011;4710;51.382;7.244;2022-07-15T05:25:01;4.40;;;2.25;;
9342;SDS011;4710;51.382;7.244;2022-07-15T05:27:40;5.47;;;2.70;;
9342;SDS011;4710;51.382;7.244;2022-07-15T05:30:24;5.80;;;2.55;;
9342;SDS011;4710;51.382;7.244;2022-07-15T05:33:02;6.55;;;2.50;;
9342;SDS011;4710;51.382;7.244;2022-07-15T05:35:39;5.75;;;2.40;;
9342;SDS011;4710;51.382;7.244;2022-07-15T05:38:16;4.85;;;2.30;;
9342;SDS011;4710;51.382;7.244;2022-07-15T05:40:54;4.47;;;2.42;;
9342;SDS011;4710;51.382;7.244;2022-07-15T05:43:35;4.65;;;2.40;;
9342;SDS011;4710;51.382;7.244;2022-07-15T05:46:15;4.40;;;2.55;;
9342;SDS011;4710;51.382;7.244;2022-07-15T05:48:55;3.28;;;2.40;;
9342;SDS011;4710;51.382;7.244;2022-07-15T05:51:37;7.32;;;2.97;;
9342;SDS011;4710;51.382;7.244;2022-07-15T05:54:17;4.90;;;2.62;;
9342;SDS011;4710;51.382;7.244;2022-07-15T05:56:54;5.80;;;2.90;;
9342;SDS011;4710;51.382;7.244;2022-07-15T05:59:32;7.07;;;2.70;;
9342;SDS011;4710;51.382;7.244;2022-07-15T06:02:10;5.62;;;2.60;;
9342;SDS011;4710;51.382;7.244;2022-07-15T06:04:50;5.28;;;2.83;;
9342;SDS011;4710;51.382;7.244;2022-07-15T06:07:28;4.70;;;2.70;;
9342;SDS011;4710;51.382;7.244;2022-07-15T06:10:09;2.83;;;2.28;;
9342;SDS011;4710;51.382;7.244;2022-07-15T06:12:49;6.75;;;2.70;;
9342;SDS011;4710;51.382;7.244;2022-07-15T06:15:30;5.68;;;2.35;;
9342;SDS011;4710;51.382;7.244;2022-07-15T06:18:07;5.18;;;2.30;;
9342;SDS011;4710;51.382;7.244;2022-07-15T06:20:48;4.60;;;2.50;;
9342;SDS011;4710;51.382;7.244;2022-07-15T06:23:25;7.57;;;2.20;;
9342;SDS011;4710;51.382;7.244;2022-07-15T06:26:02;3.80;;;2.20;;
9342;SDS011;4710;51.382;7.244;2022-07-15T06:28:42;7.12;;;2.30;;
9342;SDS011;4710;51.382;7.244;2022-07-15T06:31:20;4.80;;;2.17;;
9342;SDS011;4710;51.382;7.244;2022-07-15T06:33:59;2.85;;;2.10;;
9342;SDS011;4710;51.382;7.244;2022-07-15T06:36:39;4.37;;;2.28;;
9342;SDS011;4710;51.382;7.244;2022-07-15T06:39:20;2.70;;;1.90;;
9342;SDS011;4710;51.382;7.244;2022-07-15T06:41:57;4.85;;;2.25;;
9342;SDS011;4710;51.382;7.244;2022-07-15T06:44:34;6.37;;;2.17;;
9342;SDS011;4710;51.382;7.244;2022-07-15T06:47:18;3.45;;;1.85;;
9342;SDS011;4710;51.382;7.244;2022-07-15T06:49:55;3.60;;;1.87;;
9342;SDS011;4710;51.382;7.244;2022-07-15T06:52:32;3.83;;;1.70;;
9342;SDS011;4710;51.382;7.244;2022-07-15T06:55:13;3.85;;;1.80;;
9342;SDS011;4710;51.382;7.244;2022-07-15T06:57:50;3.30;;;1.75;;
9342;SDS011;4710;51.382;7.244;2022-07-15T07:00:30;3.72;;;1.77;;
9342;SDS011;4710;51.382;7.244;2022-07-15T07:03:08;4.85;;;1.58;;
9342;SDS011;4710;51.382;7.244;2022-07-15T07:05:45;3.40;;;1.83;;
9342;SDS011;4710;51.382;7.244;2022-07-15T07:08:22;2.97;;;1.70;;
9342;SDS011;4710;51.382;7.244;2022-07-15T07:11:03;2.53;;;1.73;;
9342;SDS011;4710;51.382;7.244;2022-07-15T07:13:44;3.95;;;1.80;;
9342;SDS011;4710;51.382;7.244;2022-07-15T07:16:24;2.35;;;1.50;;
9342;SDS011;4710;51.382;7.244;2022-07-15T07:19:05;3.70;;;1.77;;
9342;SDS011;4710;51.382;7.244;2022-07-15T07:23:46;3.83;;;1.67;;
9342;SDS011;4710;51.382;7.244;2022-07-15T07:26:27;3.60;;;1.58;;
9342;SDS011;4710;51.382;7.244;2022-07-15T07:29:04;4.60;;;1.95;;
9342;SDS011;4710;51.382;7.244;2022-07-15T07:31:45;3.08;;;1.87;;
9342;SDS011;4710;51.382;7.244;2022-07-15T07:34:26;4.10;;;1.62;;
9342;SDS011;4710;51.382;7.244;2022-07-15T07:37:05;3.97;;;1.90;;
9342;SDS011;4710;51.382;7.244;2022-07-15T07:39:42;2.75;;;1.62;;
9342;SDS011;4710;51.382;7.244;2022-07-15T07:42:23;2.92;;;1.70;;
9342;SDS011;4710;51.382;7.244;2022-07-15T07:45:00;3.12;;;1.80;;
9342;SDS011;4710;51.382;7.244;2022-07-15T07:47:40;2.78;;;1.85;;
9342;SDS011;4710;51.382;7.244;2022-07-15T07:50:21;11.15;;;2.20;;
9342;SDS011;4710;51.382;7.244;2022-07-15T07:53:01;6.55;;;2.00;;
9342;SDS011;4710;51.382;7.244;2022-07-15T07:55:39;4.10;;;1.90;;
9342;SDS011;4710;51.382;7.244;2022-07-15T07:58:20;3.83;;;1.90;;
9342;SDS011;4710;51.382;7.244;2022-07-15T08:00:58;3.20;;;1.92;;
9342;SDS011;4710;51.382;7.244;2022-07-15T08:03:36;3.12;;;1.90;;
9342;SDS011;4710;51.382;7.244;2022-07-15T08:06:16;4.20;;;1.90;;
9342;SDS011;4710;51.382;7.244;2022-07-15T08:08:53;2.87;;;1.90;;
9342;SDS011;4710;51.382;7.244;2022-07-15T08:11:37;5.50;;;1.80;;
9342;SDS011;4710;51.382;7.244;2022-07-15T08:14:14;3.03;;;1.60;;
9342;SDS011;4710;51.382;7.244;2022-07-15T08:16:55;3.65;;;1.80;;
9342;SDS011;4710;51.382;7.244;2022-07-15T08:19:35;3.30;;;1.87;;
9342;SDS011;4710;51.382;7.244;2022-07-15T08:22:13;4.10;;;2.30;;
9342;SDS011;4710;51.382;7.244;2022-07-15T08:24:50;3.45;;;1.90;;
9342;SDS011;4710;51.382;7.244;2022-07-15T08:27:28;5.55;;;2.03;;
9342;SDS011;4710;51.382;7.244;2022-07-15T08:30:09;3.12;;;1.80;;
9342;SDS011;4710;51.382;7.244;2022-07-15T08:34:13;2.57;;;1.87;;
9342;SDS011;4710;51.382;7.244;2022-07-15T08:36:53;4.35;;;2.30;;
9342;SDS011;4710;51.382;7.244;2022-07-15T08:39:31;3.47;;;2.12;;
9342;SDS011;4710;51.382;7.244;2022-07-15T08:42:09;3.60;;;2.00;;
9342;SDS011;4710;51.382;7.244;2022-07-15T08:44:46;4.37;;;2.12;;
9342;SDS011;4710;51.382;7.244;2022-07-15T08:47:27;3.65;;;2.30;;
9342;SDS011;4710;51.382;7.244;2022-07-15T08:50:08;4.22;;;2.20;;
9342;SDS011;4710;51.382;7.244;2022-07-15T08:52:49;4.72;;;2.40;;
9342;SDS011;4710;51.382;7.244;2022-07-15T08:55:32;4.25;;;2.33;;
9342;SDS011;4710;51.382;7.244;2022-07-15T08:58:09;4.70;;;2.08;;
9342;SDS011;4710;51.382;7.244;2022-07-15T09:00:47;6.57;;;2.22;;
9342;SDS011;4710;51.382;7.244;2022-07-15T09:03:29;6.90;;;2.15;;
9342;SDS011;4710;51.382;7.244;2022-07-15T09:06:11;4.43;;;2.00;;
9342;SDS011;4710;51.382;7.244;2022-07-15T09:08:50;4.35;;;2.05;;
9342;SDS011;4710;51.382;7.244;2022-07-15T09:11:30;6.20;;;2.20;;
9342;SDS011;4710;51.382;7.244;2022-07-15T09:14:12;4.07;;;2.17;;
9342;SDS011;4710;51.382;7.244;2022-07-15T09:20:05;4.10;;;2.20;;
9342;SDS011;4710;51.382;7.244;2022-07-15T09:22:58;3.47;;;1.77;;
9342;SDS011;4710;51.382;7.244;2022-07-15T09:25:39;2.90;;;1.90;;
9342;SDS011;4710;51.382;7.244;2022-07-15T09:28:20;2.15;;;1.62;;
9342;SDS011;4710;51.382;7.244;2022-07-15T09:30:59;2.58;;;1.40;;
9342;SDS011;4710;51.382;7.244;2022-07-15T09:33:42;3.15;;;1.90;;
9342;SDS011;4710;51.382;7.244;2022-07-15T09:36:23;2.72;;;1.70;;
9342;SDS011;4710;51.382;7.244;2022-07-15T09:39:06;2.67;;;1.58;;
9342;SDS011;4710;51.382;7.244;2022-07-15T09:41:43;4.75;;;2.15;;
9342;SDS011;4710;51.382;7.244;2022-07-15T09:44:21;4.90;;;1.85;;
9342;SDS011;4710;51.382;7.244;2022-07-15T09:47:01;5.57;;;2.03;;
9342;SDS011;4710;51.382;7.244;2022-07-15T09:49:42;2.22;;;1.70;;
9342;SDS011;4710;51.382;7.244;2022-07-15T09:52:20;3.50;;;1.73;;
9342;SDS011;4710;51.382;7.244;2022-07-15T09:55:01;3.80;;;1.70;;
9342;SDS011;4710;51.382;7.244;2022-07-15T09:57:43;2.97;;;1.70;;
9342;SDS011;4710;51.382;7.244;2022-07-15T10:00:21;3.62;;;1.77;;
9342;SDS011;4710;51.382;7.244;2022-07-15T10:03:03;3.70;;;1.70;;
9342;SDS011;4710;51.382;7.244;2022-07-15T10:05:43;5.28;;;1.92;;
9342;SDS011;4710;51.382;7.244;2022-07-15T10:08:21;2.55;;;1.60;;
9342;SDS011;4710;51.382;7.244;2022-07-15T10:11:07;3.37;;;1.60;;
9342;SDS011;4710;51.382;7.244;2022-07-15T10:13:53;2.95;;;1.83;;
9342;SDS011;4710;51.382;7.244;2022-07-15T10:28:45;4.28;;;1.70;;
9342;SDS011;4710;51.382;7.244;2022-07-15T10:31:23;3.05;;;1.70;;
9342;SDS011;4710;51.382;7.244;2022-07-15T10:37:02;2.60;;;1.40;;
9342;SDS011;4710;51.382;7.244;2022-07-15T10:53:16;2.62;;;1.73;;
9342;SDS011;4710;51.382;7.244;2022-07-15T10:55:56;4.53;;;1.80;;
9342;SDS011;4710;51.382;7.244;2022-07-15T10:58:40;1.92;;;1.73;;
9342;SDS011;4710;51.382;7.244;2022-07-15T11:01:28;2.40;;;1.73;;
9342;SDS011;4710;51.382;7.244;2022-07-15T11:04:13;1.80;;;1.70;;
9342;SDS011;4710;51.382;7.244;2022-07-15T11:12:57;2.70;;;1.75;;
9342;SDS011;4710;51.382;7.244;2022-07-15T11:15:40;3.22;;;1.70;;
9342;SDS011;4710;51.382;7.244;2022-07-15T11:18:21;4.90;;;2.10;;
9342;SDS011;4710;51.382;7.244;2022-07-15T11:21:01;3.03;;;1.75;;
9342;SDS011;4710;51.382;7.244;2022-07-15T11:23:43;2.60;;;1.80;;
9342;SDS011;4710;51.382;7.244;2022-07-15T11:26:20;3.92;;;1.85;;
9342;SDS011;4710;51.382;7.244;2022-07-15T11:28:58;2.30;;;1.73;;
9342;SDS011;4710;51.382;7.244;2022-07-15T11:31:38;2.42;;;1.80;;
9342;SDS011;4710;51.382;7.244;2022-07-15T11:34:19;4.85;;;1.98;;
9342;SDS011;4710;51.382;7.244;2022-07-15T11:36:59;1.60;;;1.48;;
9342;SDS011;4710;51.382;7.244;2022-07-15T11:39:40;3.53;;;1.60;;
9342;SDS011;4710;51.382;7.244;2022-07-15T11:42:21;2.58;;;1.40;;
9342;SDS011;4710;51.382;7.244;2022-07-15T11:45:04;1.67;;;1.35;;
9342;SDS011;4710;51.382;7.244;2022-07-15T11:47:52;1.50;;;1.40;;
9342;SDS011;4710;51.382;7.244;2022-07-15T11:50:30;1.95;;;1.55;;
9342;SDS011;4710;51.382;7.244;2022-07-15T11:53:11;1.73;;;1.58;;
9342;SDS011;4710;51.382;7.244;2022-07-15T11:55:54;2.10;;;1.42;;
9342;SDS011;4710;51.382;7.244;2022-07-15T11:58:36;3.55;;;1.52;;
9342;SDS011;4710;51.382;7.244;2022-07-15T12:01:24;2.97;;;1.67;;
9342;SDS011;4710;51.382;7.244;2022-07-15T12:04:04;2.78;;;1.50;;
9342;SDS011;4710;51.382;7.244;2022-07-15T12:06:41;1.67;;;1.50;;
9342;SDS011;4710;51.382;7.244;2022-07-15T12:09:18;2.08;;;1.42;;
9342;SDS011;4710;51.382;7.244;2022-07-15T12:12:02;1.60;;;1.50;;
9342;SDS011;4710;51.382;7.244;2022-07-15T12:14:39;1.42;;;1.30;;
9342;SDS011;4710;51.382;7.244;2022-07-15T12:17:24;2.20;;;1.70;;
9342;SDS011;4710;51.382;7.244;2022-07-15T12:20:04;1.60;;;1.50;;
9342;SDS011;4710;51.382;7.244;2022-07-15T12:25:35;2.55;;;1.55;;
9342;SDS011;4710;51.382;7.244;2022-07-15T12:31:08;2.83;;;1.60;;
9342;SDS011;4710;51.382;7.244;2022-07-15T12:33:45;2.62;;;1.62;;
9342;SDS011;4710;51.382;7.244;2022-07-15T12:36:27;2.83;;;1.55;;
9342;SDS011;4710;51.382;7.244;2022-07-15T12:39:11;2.50;;;1.50;;
9342;SDS011;4710;51.382;7.244;2022-07-15T12:41:58;2.08;;;1.62;;
9342;SDS011;4710;51.382;7.244;2022-07-15T12:44:38;1.40;;;1.30;;
9342;SDS011;4710;51.382;7.244;2022-07-15T12:47:15;1.65;;;1.35;;
9342;SDS011;4710;51.382;7.244;2022-07-15T12:49:59;1.58;;;1.48;;
9342;SDS011;4710;51.382;7.244;2022-07-15T12:52:37;1.70;;;1.40;;
9342;SDS011;4710;51.382;7.244;2022-07-15T12:55:15;1.92;;;1.40;;
9342;SDS011;4710;51.382;7.244;2022-07-15T13:00:42;1.50;;;1.40;;
9342;SDS011;4710;51.382;7.244;2022-07-15T13:03:26;3.33;;;1.50;;
9342;SDS011;4710;51.382;7.244;2022-07-15T13:06:03;1.50;;;1.40;;
9342;SDS011;4710;51.382;7.244;2022-07-15T13:08:44;1.80;;;1.10;;
9342;SDS011;4710;51.382;7.244;2022-07-15T13:11:23;1.30;;;1.20;;
9342;SDS011;4710;51.382;7.244;2022-07-15T13:14:05;1.50;;;1.20;;
9342;SDS011;4710;51.382;7.244;2022-07-15T13:16:46;1.52;;;1.33;;
9342;SDS011;4710;51.382;7.244;2022-07-15T13:19:27;1.42;;;1.10;;
9342;SDS011;4710;51.382;7.244;2022-07-15T13:22:10;1.40;;;1.30;;
9342;SDS011;4710;51.382;7.244;2022-07-15T13:24:59;1.03;;;1.03;;
9342;SDS011;4710;51.382;7.244;2022-07-15T13:27:39;2.50;;;1.40;;
9342;SDS011;4710;51.382;7.244;2022-07-15T13:30:20;1.87;;;1.35;;
9342;SDS011;4710;51.382;7.244;2022-07-15T13:33:00;1.15;;;1.15;;
9342;SDS011;4710;51.382;7.244;2022-07-15T13:35:38;1.40;;;1.30;;
9342;SDS011;4710;51.382;7.244;2022-07-15T13:38:16;1.42;;;1.30;;
9342;SDS011;4710;51.382;7.244;2022-07-15T13:40:53;1.52;;;1.42;;
9342;SDS011;4710;51.382;7.244;2022-07-15T13:43:30;1.85;;;1.20;;
9342;SDS011;4710;51.382;7.244;2022-07-15T13:46:08;1.70;;;1.20;;
9342;SDS011;4710;51.382;7.244;2022-07-15T13:48:45;1.70;;;1.37;;
9342;SDS011;4710;51.382;7.244;2022-07-15T13:51:22;1.80;;;1.17;;
9342;SDS011;4710;51.382;7.244;2022-07-15T13:53:59;1.60;;;1.50;;
9342;SDS011;4710;51.382;7.244;2022-07-15T13:56:43;1.00;;;1.00;;
9342;SDS011;4710;51.382;7.244;2022-07-15T13:59:20;1.20;;;1.10;;
9342;SDS011;4710;51.382;7.244;2022-07-15T14:02:04;1.45;;;1.15;;
9342;SDS011;4710;51.382;7.244;2022-07-15T14:04:41;1.25;;;1.15;;
9342;SDS011;4710;51.382;7.244;2022-07-15T14:07:19;1.90;;;1.20;;
9342;SDS011;4710;51.382;7.244;2022-07-15T14:10:03;1.35;;;1.20;;
9342;SDS011;4710;51.382;7.244;2022-07-15T14:12:44;1.40;;;1.27;;
9342;SDS011;4710;51.382;7.244;2022-07-15T14:15:22;5.05;;;1.33;;
9342;SDS011;4710;51.382;7.244;2022-07-15T14:18:02;1.73;;;1.35;;
9342;SDS011;4710;51.382;7.244;2022-07-15T14:20:43;1.30;;;1.20;;
9342;SDS011;4710;51.382;7.244;2022-07-15T14:23:26;2.42;;;1.23;;
9342;SDS011;4710;51.382;7.244;2022-07-15T14:26:04;1.27;;;1.10;;
9342;SDS011;4710;51.382;7.244;2022-07-15T14:28:44;1.35;;;1.25;;
9342;SDS011;4710;51.382;7.244;2022-07-15T14:31:21;1.33;;;1.23;;
9342;SDS011;4710;51.382;7.244;2022-07-15T14:34:03;1.70;;;1.30;;
9342;SDS011;4710;51.382;7.244;2022-07-15T14:36:40;1.75;;;1.17;;
9342;SDS011;4710;51.382;7.244;2022-07-15T14:39:17;1.65;;;1.00;;
9342;SDS011;4710;51.382;7.244;2022-07-15T14:41:58;1.50;;;1.20;;
9342;SDS011;4710;51.382;7.244;2022-07-15T14:44:41;1.12;;;1.02;;
9342;SDS011;4710;51.382;7.244;2022-07-15T14:47:22;1.40;;;1.20;;
9342;SDS011;4710;51.382;7.244;2022-07-15T14:49:59;1.40;;;1.30;;
9342;SDS011;4710;51.382;7.244;2022-07-15T14:52:37;1.40;;;1.12;;
9342;SDS011;4710;51.382;7.244;2022-07-15T14:55:14;2.17;;;1.20;;
9342;SDS011;4710;51.382;7.244;2022-07-15T14:57:54;1.48;;;1.10;;
9342;SDS011;4710;51.382;7.244;2022-07-15T15:00:31;1.15;;;1.12;;
9342;SDS011;4710;51.382;7.244;2022-07-15T15:03:09;1.60;;;1.05;;
9342;SDS011;4710;51.382;7.244;2022-07-15T15:05:48;1.00;;;1.00;;
9342;SDS011;4710;51.382;7.244;2022-07-15T15:08:26;1.15;;;1.10;;
9342;SDS011;4710;51.382;7.244;2022-07-15T15:11:03;1.15;;;1.15;;
9342;SDS011;4710;51.382;7.244;2022-07-15T15:13:47;2.03;;;1.20;;
9342;SDS011;4710;51.382;7.244;2022-07-15T15:16:26;1.30;;;1.20;;
9342;SDS011;4710;51.382;7.244;2022-07-15T15:19:06;1.83;;;0.90;;
9342;SDS011;4710;51.382;7.244;2022-07-15T15:21:47;1.35;;;1.20;;
9342;SDS011;4710;51.382;7.244;2022-07-15T15:24:25;1.40;;;1.10;;
9342;SDS011;4710;51.382;7.244;2022-07-15T15:27:09;1.00;;;1.00;;
9342;SDS011;4710;51.382;7.244;2022-07-15T15:29:46;4.00;;;1.33;;
9342;SDS011;4710;51.382;7.244;2022-07-15T15:32:24;1.37;;;1.20;;
9342;SDS011;4710;51.382;7.244;2022-07-15T15:35:06;2.65;;;1.40;;
9342;SDS011;4710;51.382;7.244;2022-07-15T15:37:47;1.20;;;1.10;;
9342;SDS011;4710;51.382;7.244;2022-07-15T15:40:28;2.90;;;1.20;;
9342;SDS011;4710;51.382;7.244;2022-07-15T15:43:09;1.90;;;1.12;;
9342;SDS011;4710;51.382;7.244;2022-07-15T15:45:50;2.00;;;1.12;;
9342;SDS011;4710;51.382;7.244;2022-07-15T15:48:27;1.10;;;1.10;;
9342;SDS011;4710;51.382;7.244;2022-07-15T15:51:04;1.35;;;1.25;;
9342;SDS011;4710;51.382;7.244;2022-07-15T15:53:42;2.75;;;1.02;;
9342;SDS011;4710;51.382;7.244;2022-07-15T15:56:19;2.00;;;1.20;;
9342;SDS011;4710;51.382;7.244;2022-07-15T15:58:57;1.87;;;1.10;;
9342;SDS011;4710;51.382;7.244;2022-07-15T16:01:37;1.20;;;1.10;;
9342;SDS011;4710;51.382;7.244;2022-07-15T16:04:15;1.30;;;1.20;;
9342;SDS011;4710;51.382;7.244;2022-07-15T16:06:52;3.40;;;1.20;;
9342;SDS011;4710;51.382;7.244;2022-07-15T16:09:31;1.80;;;1.10;;
9342;SDS011;4710;51.382;7.244;2022-07-15T16:12:08;2.10;;;2.00;;
9342;SDS011;4710;51.382;7.244;2022-07-15T16:14:46;0.90;;;0.90;;
9342;SDS011;4710;51.382;7.244;2022-07-15T16:17:23;3.47;;;1.42;;
9342;SDS011;4710;51.382;7.244;2022-07-15T16:20:04;1.30;;;1.20;;
9342;SDS011;4710;51.382;7.244;2022-07-15T16:22:41;1.87;;;1.77;;
9342;SDS011;4710;51.382;7.244;2022-07-15T16:25:26;1.75;;;1.25;;
9342;SDS011;4710;51.382;7.244;2022-07-15T16:28:08;1.00;;;1.00;;
9342;SDS011;4710;51.382;7.244;2022-07-15T16:30:51;2.85;;;1.20;;
9342;SDS011;4710;51.382;7.244;2022-07-15T16:33:31;1.25;;;1.15;;
9342;SDS011;4710;51.382;7.244;2022-07-15T16:36:11;1.35;;;1.10;;
9342;SDS011;4710;51.382;7.244;2022-07-15T16:38:49;2.45;;;1.37;;
9342;SDS011;4710;51.382;7.244;2022-07-15T16:41:29;1.40;;;1.30;;
9342;SDS011;4710;51.382;7.244;2022-07-15T16:44:13;1.23;;;1.17;;
9342;SDS011;4710;51.382;7.244;2022-07-15T16:46:50;1.45;;;1.20;;
9342;SDS011;4710;51.382;7.244;2022-07-15T16:51:00;3.10;;;1.00;;
9342;SDS011;4710;51.382;7.244;2022-07-15T16:53:37;1.42;;;1.30;;
9342;SDS011;4710;51.382;7.244;2022-07-15T16:56:18;1.20;;;1.20;;
9342;SDS011;4710;51.382;7.244;2022-07-15T16:58:55;1.10;;;1.10;;
9342;SDS011;4710;51.382;7.244;2022-07-15T17:01:34;1.42;;;1.33;;
9342;SDS011;4710;51.382;7.244;2022-07-15T17:04:19;1.40;;;1.20;;
9342;SDS011;4710;51.382;7.244;2022-07-15T17:07:02;1.40;;;1.30;;
9342;SDS011;4710;51.382;7.244;2022-07-15T17:09:42;1.87;;;1.20;;
9342;SDS011;4710;51.382;7.244;2022-07-15T17:12:23;1.50;;;1.30;;
9342;SDS011;4710;51.382;7.244;2022-07-15T17:15:00;1.12;;;1.12;;
9342;SDS011;4710;51.382;7.244;2022-07-15T17:17:37;3.28;;;1.40;;
9342;SDS011;4710;51.382;7.244;2022-07-15T17:20:21;1.50;;;1.40;;
9342;SDS011;4710;51.382;7.244;2022-07-15T17:22:58;1.23;;;1.20;;
9342;SDS011;4710;51.382;7.244;2022-07-15T17:25:36;1.30;;;1.20;;